createdAt,value
2017-09-27T00:01:00.007Z,19.55
2017-09-27T00:02:44.496Z,19.54
2017-09-27T00:03:45.134Z,19.58
2017-09-27T00:05:29.275Z,19.55
2017-09-27T00:06:29.912Z,19.56
2017-09-27T00:08:14.050Z,19.58
2017-09-27T00:09:14.691Z,19.54
2017-09-27T00:10:59.129Z,19.49
2017-09-27T00:11:59.766Z,19.55
2017-09-27T00:13:43.902Z,19.54
2017-09-27T00:14:44.549Z,19.51
2017-09-27T00:16:28.680Z,19.44
2017-09-27T00:17:29.314Z,19.49
2017-09-27T00:19:13.602Z,19.49
2017-09-27T00:20:14.239Z,19.45
2017-09-27T00:21:58.375Z,19.51
2017-09-27T00:22:59.012Z,19.47
2017-09-27T00:24:43.159Z,19.45
2017-09-27T00:25:43.796Z,19.51
2017-09-27T00:27:28.133Z,19.45
2017-09-27T00:28:28.770Z,19.47
2017-09-27T00:30:12.906Z,19.52
2017-09-27T00:31:13.544Z,19.51
2017-09-27T00:32:57.681Z,19.44
2017-09-27T00:33:58.318Z,19.49
2017-09-27T00:35:42.606Z,19.47
2017-09-27T00:36:43.243Z,19.51
2017-09-27T00:38:27.379Z,19.49
2017-09-27T00:39:28.016Z,19.48
2017-09-27T00:41:12.154Z,19.48
2017-09-27T00:42:12.791Z,19.47
2017-09-27T00:43:57.030Z,19.48
2017-09-27T00:44:57.669Z,19.48
2017-09-27T00:46:41.858Z,19.49
2017-09-27T00:47:42.499Z,19.39
2017-09-27T00:49:26.632Z,19.47
2017-09-27T00:50:27.271Z,19.48
2017-09-27T00:52:11.559Z,19.49
2017-09-27T00:53:12.196Z,19.45
2017-09-27T00:54:56.338Z,19.45
2017-09-27T00:55:56.974Z,19.47
2017-09-27T00:57:41.112Z,19.44
2017-09-27T00:58:41.749Z,19.40
2017-09-27T01:00:25.988Z,19.39
2017-09-27T01:01:26.625Z,19.33
2017-09-27T01:03:10.760Z,19.44
2017-09-27T01:04:11.399Z,19.36
2017-09-27T01:05:55.542Z,19.40
2017-09-27T01:06:56.180Z,19.39
2017-09-27T01:08:40.467Z,19.40
2017-09-27T01:09:41.106Z,19.44
2017-09-27T01:11:25.244Z,19.39
2017-09-27T01:12:25.877Z,19.41
2017-09-27T01:14:10.015Z,19.39
2017-09-27T01:15:10.652Z,19.41
2017-09-27T01:16:55.089Z,19.44
2017-09-27T01:17:55.726Z,19.37
2017-09-27T01:19:39.864Z,19.36
2017-09-27T01:20:40.501Z,19.36
2017-09-27T01:22:24.639Z,19.37
2017-09-27T01:23:25.276Z,19.44
2017-09-27T01:25:09.615Z,19.40
2017-09-27T01:26:10.251Z,19.31
2017-09-27T01:27:54.387Z,19.39
2017-09-27T01:28:55.024Z,19.29
2017-09-27T01:30:39.163Z,19.37
2017-09-27T01:31:39.798Z,19.37
2017-09-27T01:33:23.887Z,19.34
2017-09-27T01:34:24.725Z,19.30
2017-09-27T01:36:08.861Z,19.29
2017-09-27T01:37:09.498Z,19.31
2017-09-27T01:38:53.636Z,19.39
2017-09-27T01:39:54.273Z,19.29
2017-09-27T01:41:38.410Z,19.34
2017-09-27T01:42:39.248Z,19.29
2017-09-27T01:44:23.392Z,19.30
2017-09-27T01:45:24.029Z,19.30
2017-09-27T01:47:08.166Z,19.31
2017-09-27T01:48:08.803Z,19.21
2017-09-27T01:49:52.941Z,19.31
2017-09-27T01:50:53.778Z,19.21
2017-09-27T01:52:37.915Z,19.30
2017-09-27T01:53:38.551Z,19.22
2017-09-27T01:55:22.697Z,19.26
2017-09-27T01:56:23.332Z,19.30
2017-09-27T01:58:07.471Z,19.36
2017-09-27T01:59:08.257Z,19.30
2017-09-27T02:00:52.345Z,19.31
2017-09-27T02:01:52.982Z,19.24
2017-09-27T02:03:37.120Z,19.30
2017-09-27T02:04:37.756Z,19.30
2017-09-27T02:06:21.895Z,19.26
2017-09-27T02:07:22.732Z,19.18
2017-09-27T02:09:06.868Z,19.22
2017-09-27T02:10:07.504Z,19.19
2017-09-27T02:11:51.643Z,19.16
2017-09-27T02:12:52.280Z,19.21
2017-09-27T02:14:36.421Z,19.24
2017-09-27T02:15:37.268Z,19.24
2017-09-27T02:17:21.394Z,19.18
2017-09-27T02:18:22.030Z,19.22
2017-09-27T02:20:06.119Z,19.24
2017-09-27T02:21:06.757Z,19.22
2017-09-27T02:22:50.894Z,19.19
2017-09-27T02:23:51.681Z,19.22
2017-09-27T02:25:35.825Z,19.22
2017-09-27T02:26:36.461Z,19.19
2017-09-27T02:28:20.598Z,19.27
2017-09-27T02:29:21.236Z,19.27
2017-09-27T02:31:05.374Z,19.19
2017-09-27T02:32:06.210Z,19.18
2017-09-27T02:33:50.346Z,19.19
2017-09-27T02:34:50.984Z,19.14
2017-09-27T02:36:35.122Z,19.22
2017-09-27T02:37:35.758Z,19.15
2017-09-27T02:39:19.896Z,19.18
2017-09-27T02:40:20.683Z,19.09
2017-09-27T02:42:04.820Z,19.14
2017-09-27T02:43:05.455Z,19.11
2017-09-27T02:44:49.600Z,19.09
2017-09-27T02:45:50.236Z,19.12
2017-09-27T02:47:34.376Z,19.14
2017-09-27T02:48:35.264Z,19.16
2017-09-27T02:50:19.411Z,19.11
2017-09-27T02:51:20.098Z,19.15
2017-09-27T02:53:04.234Z,19.07
2017-09-27T02:54:04.873Z,19.07
2017-09-27T02:55:49.008Z,19.14
2017-09-27T02:56:49.897Z,19.08
2017-09-27T02:58:34.035Z,19.09
2017-09-27T02:59:34.672Z,19.14
2017-09-27T03:01:18.810Z,19.09
2017-09-27T03:02:19.448Z,19.14
2017-09-27T03:04:03.586Z,19.12
2017-09-27T03:05:04.372Z,19.09
2017-09-27T03:06:48.511Z,19.07
2017-09-27T03:07:49.145Z,18.99
2017-09-27T03:09:33.282Z,19.08
2017-09-27T03:10:33.919Z,19.09
2017-09-27T03:12:18.057Z,19.07
2017-09-27T03:13:18.946Z,18.99
2017-09-27T03:15:03.088Z,19.11
2017-09-27T03:16:03.724Z,19.07
2017-09-27T03:17:47.862Z,19.07
2017-09-27T03:18:48.499Z,19.07
2017-09-27T03:20:32.635Z,19.09
2017-09-27T03:21:33.572Z,19.14
2017-09-27T03:23:17.711Z,19.07
2017-09-27T03:24:18.347Z,19.07
2017-09-27T03:26:02.484Z,19.08
2017-09-27T03:27:03.121Z,19.07
2017-09-27T03:28:47.259Z,19.04
2017-09-27T03:29:47.895Z,19.00
2017-09-27T03:31:32.234Z,19.07
2017-09-27T03:32:32.870Z,18.98
2017-09-27T03:34:17.013Z,19.04
2017-09-27T03:35:17.648Z,19.02
2017-09-27T03:37:01.787Z,19.08
2017-09-27T03:38:02.422Z,18.96
2017-09-27T03:39:46.760Z,19.02
2017-09-27T03:40:47.398Z,18.98
2017-09-27T03:42:31.536Z,19.00
2017-09-27T03:43:32.225Z,19.02
2017-09-27T03:45:16.366Z,19.00
2017-09-27T03:46:17.002Z,19.00
2017-09-27T03:48:01.340Z,19.00
2017-09-27T03:49:01.977Z,19.00
2017-09-27T03:50:46.115Z,18.99
2017-09-27T03:51:46.750Z,19.00
2017-09-27T03:53:30.889Z,19.02
2017-09-27T03:54:31.525Z,19.02
2017-09-27T03:56:15.863Z,18.98
2017-09-27T03:57:16.500Z,19.02
2017-09-27T03:59:00.637Z,18.99
2017-09-27T04:00:01.274Z,18.98
2017-09-27T04:01:45.411Z,18.99
2017-09-27T04:02:46.051Z,18.99
2017-09-27T04:04:30.386Z,18.99
2017-09-27T04:05:31.022Z,18.88
2017-09-27T04:07:15.160Z,18.99
2017-09-27T04:08:15.798Z,19.00
2017-09-27T04:09:59.934Z,18.98
2017-09-27T04:11:00.571Z,18.99
2017-09-27T04:12:44.859Z,18.99
2017-09-27T04:13:45.494Z,18.88
2017-09-27T04:15:29.632Z,18.93
2017-09-27T04:16:30.268Z,18.86
2017-09-27T04:18:14.408Z,18.95
2017-09-27T04:19:15.043Z,18.95
2017-09-27T04:21:00.180Z,18.90
2017-09-27T04:22:00.816Z,18.93
2017-09-27T04:23:44.954Z,18.92
2017-09-27T04:24:45.590Z,18.95
2017-09-27T04:26:29.728Z,18.90
2017-09-27T04:27:30.368Z,18.98
2017-09-27T04:29:14.755Z,18.93
2017-09-27T04:30:15.391Z,18.86
2017-09-27T04:31:59.529Z,18.95
2017-09-27T04:33:00.166Z,18.90
2017-09-27T04:34:44.308Z,18.92
2017-09-27T04:35:44.944Z,18.83
2017-09-27T04:37:29.281Z,18.90
2017-09-27T04:38:29.918Z,18.86
2017-09-27T04:40:14.055Z,18.84
2017-09-27T04:41:14.694Z,18.77
2017-09-27T04:42:58.829Z,18.83
2017-09-27T04:43:59.466Z,18.75
2017-09-27T04:45:43.804Z,18.78
2017-09-27T04:46:44.440Z,18.68
2017-09-27T04:48:28.628Z,18.81
2017-09-27T04:49:29.265Z,18.83
2017-09-27T04:51:13.402Z,18.83
2017-09-27T04:52:14.038Z,18.77
2017-09-27T04:53:58.375Z,18.86
2017-09-27T04:54:59.013Z,18.83
2017-09-27T04:56:43.150Z,18.86
2017-09-27T04:57:43.787Z,18.80
2017-09-27T04:59:27.924Z,18.83
2017-09-27T05:00:28.561Z,18.80
2017-09-27T05:02:12.898Z,18.84
2017-09-27T05:03:13.535Z,18.81
2017-09-27T05:04:57.679Z,18.83
2017-09-27T05:05:58.366Z,18.84
2017-09-27T05:07:42.502Z,18.88
2017-09-27T05:08:43.138Z,18.83
2017-09-27T05:10:27.475Z,18.88
2017-09-27T05:11:28.115Z,18.86
2017-09-27T05:13:16.259Z,18.84
2017-09-27T05:14:16.893Z,18.81
2017-09-27T05:16:01.030Z,18.86
2017-09-27T05:17:01.667Z,18.81
2017-09-27T05:18:46.005Z,18.81
2017-09-27T05:19:46.641Z,18.84
2017-09-27T05:21:30.778Z,18.89
2017-09-27T05:22:31.416Z,18.89
2017-09-27T05:24:15.560Z,18.81
2017-09-27T05:25:16.195Z,18.75
2017-09-27T05:27:00.533Z,18.86
2017-09-27T05:28:01.170Z,18.78
2017-09-27T05:29:45.307Z,18.81
2017-09-27T05:30:45.943Z,18.88
2017-09-27T05:32:30.081Z,18.81
2017-09-27T05:33:30.717Z,18.80
2017-09-27T05:35:15.105Z,18.83
2017-09-27T05:36:15.742Z,18.80
2017-09-27T05:37:59.878Z,18.89
2017-09-27T05:39:00.516Z,18.84
2017-09-27T05:40:44.652Z,18.84
2017-09-27T05:41:45.289Z,18.83
2017-09-27T05:43:29.677Z,18.83
2017-09-27T05:44:30.314Z,18.80
2017-09-27T05:46:14.449Z,18.83
2017-09-27T05:47:15.085Z,18.81
2017-09-27T05:48:59.222Z,18.83
2017-09-27T05:49:59.811Z,18.84
2017-09-27T05:51:44.095Z,18.80
2017-09-27T05:52:44.730Z,18.78
2017-09-27T05:54:28.869Z,18.83
2017-09-27T05:55:29.505Z,18.75
2017-09-27T05:57:13.645Z,18.83
2017-09-27T05:58:14.279Z,18.78
2017-09-27T05:59:58.767Z,18.77
2017-09-27T06:00:59.405Z,18.75
2017-09-27T06:02:43.539Z,18.83
2017-09-27T06:03:44.175Z,18.78
2017-09-27T06:05:28.312Z,18.74
2017-09-27T06:06:28.949Z,18.71
2017-09-27T06:08:13.387Z,18.73
2017-09-27T06:09:14.024Z,18.70
2017-09-27T06:10:58.212Z,18.75
2017-09-27T06:11:58.848Z,18.73
2017-09-27T06:13:42.987Z,18.74
2017-09-27T06:14:43.630Z,18.73
2017-09-27T06:16:28.009Z,18.74
2017-09-27T06:17:28.647Z,18.78
2017-09-27T06:19:12.782Z,18.77
2017-09-27T06:20:13.419Z,18.75
2017-09-27T06:21:57.556Z,18.77
2017-09-27T06:22:58.193Z,18.71
2017-09-27T06:24:42.480Z,18.73
2017-09-27T06:25:43.116Z,18.68
2017-09-27T06:27:27.251Z,18.75
2017-09-27T06:28:27.887Z,18.73
2017-09-27T06:30:12.024Z,18.74
2017-09-27T06:31:12.661Z,18.73
2017-09-27T06:32:56.999Z,18.78
2017-09-27T06:33:57.634Z,18.75
2017-09-27T06:35:41.769Z,18.75
2017-09-27T06:36:42.406Z,18.74
2017-09-27T06:38:26.543Z,18.75
2017-09-27T06:39:27.180Z,18.77
2017-09-27T06:41:11.517Z,18.75
2017-09-27T06:42:12.152Z,18.74
2017-09-27T06:43:56.303Z,18.75
2017-09-27T06:44:56.924Z,18.66
2017-09-27T06:46:41.062Z,18.70
2017-09-27T06:47:41.758Z,18.62
2017-09-27T06:49:26.193Z,18.77
2017-09-27T06:50:26.824Z,18.65
2017-09-27T06:52:10.961Z,18.73
2017-09-27T06:53:16.900Z,18.60
2017-09-27T06:55:01.035Z,18.70
2017-09-27T06:56:01.672Z,18.66
2017-09-27T06:57:46.008Z,18.73
2017-09-27T06:58:46.646Z,18.73
2017-09-27T07:00:30.783Z,18.75
2017-09-27T07:01:31.421Z,18.62
2017-09-27T07:03:15.562Z,18.52
2017-09-27T07:04:16.201Z,18.52
2017-09-27T07:06:00.497Z,18.50
2017-09-27T07:07:01.131Z,18.47
2017-09-27T07:08:45.268Z,18.50
2017-09-27T07:09:45.909Z,18.44
2017-09-27T07:11:30.052Z,18.53
2017-09-27T07:12:30.773Z,18.47
2017-09-27T07:14:14.888Z,18.53
2017-09-27T07:15:15.728Z,18.63
2017-09-27T07:16:59.868Z,18.53
2017-09-27T07:18:00.511Z,18.62
2017-09-27T07:19:44.700Z,18.65
2017-09-27T07:20:45.339Z,18.60
2017-09-27T07:22:32.186Z,18.53
2017-09-27T07:23:32.969Z,18.65
2017-09-27T07:25:17.108Z,18.62
2017-09-27T07:26:17.747Z,18.56
2017-09-27T07:28:01.887Z,18.66
2017-09-27T07:29:02.527Z,18.63
2017-09-27T07:30:46.667Z,18.53
2017-09-27T07:31:47.607Z,18.59
2017-09-27T07:33:31.705Z,18.62
2017-09-27T07:34:32.346Z,18.60
2017-09-27T07:36:16.488Z,18.65
2017-09-27T07:37:17.179Z,18.66
2017-09-27T07:39:01.317Z,18.65
2017-09-27T07:40:02.156Z,18.65
2017-09-27T07:41:46.295Z,18.63
2017-09-27T07:42:46.934Z,18.56
2017-09-27T07:44:31.079Z,18.59
2017-09-27T07:45:31.718Z,18.62
2017-09-27T07:47:15.857Z,18.59
2017-09-27T07:48:16.697Z,18.62
2017-09-27T07:50:00.836Z,18.65
2017-09-27T07:51:01.475Z,18.58
2017-09-27T07:52:45.666Z,18.62
2017-09-27T07:53:46.306Z,18.60
2017-09-27T07:55:30.447Z,18.66
2017-09-27T07:56:31.236Z,18.66
2017-09-27T07:58:15.376Z,18.66
2017-09-27T07:59:16.015Z,18.62
2017-09-27T08:01:00.157Z,18.65
2017-09-27T08:02:00.799Z,18.71
2017-09-27T08:03:44.945Z,18.77
2017-09-27T08:04:45.887Z,18.71
2017-09-27T08:06:30.027Z,18.73
2017-09-27T08:07:30.667Z,18.73
2017-09-27T08:09:14.807Z,18.78
2017-09-27T08:10:15.449Z,18.81
2017-09-27T08:11:59.589Z,18.84
2017-09-27T08:13:00.428Z,18.81
2017-09-27T08:14:44.469Z,18.84
2017-09-27T08:15:45.110Z,18.88
2017-09-27T08:17:29.252Z,18.80
2017-09-27T08:18:29.891Z,18.81
2017-09-27T08:20:14.032Z,18.81
2017-09-27T08:21:14.822Z,18.90
2017-09-27T08:22:58.962Z,18.90
2017-09-27T08:23:59.601Z,18.86
2017-09-27T08:25:43.742Z,18.93
2017-09-27T08:26:44.382Z,18.90
2017-09-27T08:28:28.524Z,18.92
2017-09-27T08:29:29.364Z,18.90
2017-09-27T08:31:13.504Z,18.92
2017-09-27T08:32:14.144Z,18.93
2017-09-27T08:33:58.294Z,18.95
2017-09-27T08:34:58.936Z,19.04
2017-09-27T08:36:43.075Z,19.00
2017-09-27T08:37:44.115Z,18.99
2017-09-27T08:39:28.254Z,19.12
2017-09-27T08:40:28.894Z,19.15
2017-09-27T08:42:13.035Z,19.16
2017-09-27T08:43:13.676Z,19.15
2017-09-27T08:44:57.817Z,19.15
2017-09-27T08:45:58.657Z,19.16
2017-09-27T08:47:42.799Z,19.24
2017-09-27T08:48:43.491Z,19.21
2017-09-27T08:50:27.630Z,19.24
2017-09-27T08:51:28.273Z,19.18
2017-09-27T08:53:12.418Z,19.22
2017-09-27T08:54:13.259Z,19.16
2017-09-27T08:55:57.402Z,19.22
2017-09-27T08:56:58.043Z,19.19
2017-09-27T08:58:42.184Z,19.24
2017-09-27T08:59:42.824Z,19.30
2017-09-27T09:01:26.966Z,19.27
2017-09-27T09:02:27.806Z,19.36
2017-09-27T09:04:11.951Z,19.41
2017-09-27T09:05:12.592Z,19.36
2017-09-27T09:06:56.730Z,19.47
2017-09-27T09:07:57.371Z,19.47
2017-09-27T09:09:41.564Z,19.44
2017-09-27T09:10:42.404Z,19.48
2017-09-27T09:12:26.544Z,19.44
2017-09-27T09:13:27.184Z,19.54
2017-09-27T09:15:11.326Z,19.58
2017-09-27T09:16:11.966Z,19.63
2017-09-27T09:17:56.108Z,19.70
2017-09-27T09:18:56.749Z,19.67
2017-09-27T09:20:41.193Z,19.70
2017-09-27T09:21:41.885Z,19.76
2017-09-27T09:23:26.035Z,19.77
2017-09-27T09:24:26.679Z,19.79
2017-09-27T09:26:10.827Z,19.81
2017-09-27T09:27:11.465Z,19.88
2017-09-27T09:28:55.801Z,19.95
2017-09-27T09:29:56.441Z,19.89
2017-09-27T09:31:40.584Z,19.82
2017-09-27T09:32:41.224Z,19.94
2017-09-27T09:34:25.370Z,19.94
2017-09-27T09:35:26.011Z,19.96
2017-09-27T09:37:10.302Z,19.91
2017-09-27T09:38:10.942Z,19.96
2017-09-27T09:39:55.084Z,20.00
2017-09-27T09:40:55.725Z,20.10
2017-09-27T09:42:39.870Z,20.03
2017-09-27T09:43:40.509Z,20.14
2017-09-27T09:45:25.002Z,20.21
2017-09-27T09:46:25.642Z,20.18
2017-09-27T09:48:09.786Z,20.21
2017-09-27T09:49:10.426Z,20.25
2017-09-27T09:50:54.569Z,20.25
2017-09-27T09:51:55.209Z,20.32
2017-09-27T09:53:39.503Z,20.37
2017-09-27T09:54:40.143Z,20.39
2017-09-27T09:56:24.286Z,20.44
2017-09-27T09:57:24.927Z,20.47
2017-09-27T09:59:09.070Z,20.50
2017-09-27T10:00:09.712Z,20.51
2017-09-27T10:01:54.055Z,20.60
2017-09-27T10:02:54.698Z,20.59
2017-09-27T10:04:38.841Z,20.62
2017-09-27T10:05:39.483Z,20.65
2017-09-27T10:07:23.626Z,20.74
2017-09-27T10:08:24.269Z,20.74
2017-09-27T10:10:08.615Z,20.77
2017-09-27T10:11:09.255Z,20.78
2017-09-27T10:12:53.399Z,20.88
2017-09-27T10:13:54.042Z,20.87
2017-09-27T10:15:38.186Z,20.88
2017-09-27T10:16:38.829Z,20.88
2017-09-27T10:18:23.121Z,20.92
2017-09-27T10:19:23.764Z,20.93
2017-09-27T10:21:07.907Z,20.99
2017-09-27T10:22:08.549Z,21.05
2017-09-27T10:23:52.693Z,21.05
2017-09-27T10:24:53.335Z,21.05
2017-09-27T10:26:37.680Z,21.09
2017-09-27T10:27:38.322Z,21.15
2017-09-27T10:29:22.468Z,21.14
2017-09-27T10:30:23.163Z,21.11
2017-09-27T10:32:07.306Z,21.15
2017-09-27T10:33:07.949Z,21.21
2017-09-27T10:34:53.094Z,21.33
2017-09-27T10:35:53.737Z,21.20
2017-09-27T10:37:37.882Z,21.36
2017-09-27T10:38:38.527Z,21.35
2017-09-27T10:40:22.673Z,21.39
2017-09-27T10:41:23.318Z,21.33
2017-09-27T10:43:07.664Z,21.46
2017-09-27T10:44:08.309Z,21.39
2017-09-27T10:45:52.455Z,21.51
2017-09-27T10:46:53.107Z,21.50
2017-09-27T10:48:37.247Z,21.58
2017-09-27T10:49:37.894Z,21.60
2017-09-27T10:51:22.192Z,21.66
2017-09-27T10:52:22.839Z,21.70
2017-09-27T10:54:06.991Z,21.85
2017-09-27T10:55:07.638Z,21.85
2017-09-27T10:56:51.787Z,21.92
2017-09-27T10:59:37.977Z,22.07
2017-09-27T11:01:42.157Z,22.13
2017-09-27T11:02:43.011Z,22.23
2017-09-27T11:04:27.162Z,22.29
2017-09-27T11:05:27.812Z,22.36
2017-09-27T11:07:12.316Z,22.45
2017-09-27T11:08:12.971Z,22.54
2017-09-27T11:09:57.123Z,22.48
2017-09-27T11:10:57.776Z,22.55
2017-09-27T11:12:45.950Z,22.59
2017-09-27T11:13:46.597Z,22.60
2017-09-27T11:15:31.053Z,22.76
2017-09-27T11:16:31.706Z,22.70
2017-09-27T11:18:15.862Z,22.78
2017-09-27T11:19:16.516Z,22.78
2017-09-27T11:21:00.675Z,22.87
2017-09-27T11:22:01.330Z,22.91
2017-09-27T11:23:46.033Z,23.03
2017-09-27T11:24:46.692Z,23.03
2017-09-27T11:26:30.843Z,23.20
2017-09-27T11:27:31.498Z,23.13
2017-09-27T11:29:15.655Z,23.31
2017-09-27T11:30:16.310Z,23.37
2017-09-27T11:32:00.817Z,23.47
2017-09-27T11:33:01.473Z,23.54
2017-09-27T11:34:45.630Z,23.58
2017-09-27T11:35:46.285Z,23.54
2017-09-27T11:37:30.443Z,23.61
2017-09-27T11:38:31.103Z,23.73
2017-09-27T11:40:15.255Z,23.76
2017-09-27T11:41:16.061Z,23.78
2017-09-27T11:43:00.220Z,23.73
2017-09-27T11:44:00.872Z,23.71
2017-09-27T11:45:45.027Z,23.77
2017-09-27T11:46:45.679Z,23.73
2017-09-27T11:48:29.833Z,23.56
2017-09-27T11:49:31.542Z,23.37
2017-09-27T11:51:15.692Z,23.06
2017-09-27T11:52:16.343Z,23.00
2017-09-27T11:54:00.497Z,22.78
2017-09-27T11:55:01.148Z,22.75
2017-09-27T11:56:45.300Z,22.69
2017-09-27T11:57:46.202Z,22.75
2017-09-27T11:59:30.358Z,22.68
2017-09-27T12:00:31.010Z,22.69
2017-09-27T12:02:15.166Z,22.69
2017-09-27T12:03:15.816Z,22.76
2017-09-27T12:04:59.972Z,22.99
2017-09-27T12:06:00.773Z,23.12
2017-09-27T12:07:44.928Z,23.69
2017-09-27T12:08:45.580Z,23.96
2017-09-27T12:10:29.734Z,24.20
2017-09-27T12:11:30.384Z,24.23
2017-09-27T12:13:14.543Z,24.32
2017-09-27T12:14:15.394Z,24.05
2017-09-27T12:15:59.548Z,23.69
2017-09-27T12:17:00.199Z,23.44
2017-09-27T12:18:44.350Z,23.15
2017-09-27T12:19:45.000Z,23.00
2017-09-27T12:21:29.153Z,22.75
2017-09-27T12:22:30.002Z,22.72
2017-09-27T12:24:14.153Z,22.62
2017-09-27T12:25:14.856Z,22.51
2017-09-27T12:26:59.007Z,22.43
2017-09-27T12:27:59.655Z,22.39
2017-09-27T12:29:43.806Z,22.29
2017-09-27T12:30:44.859Z,22.33
2017-09-27T12:32:30.043Z,22.15
2017-09-27T12:33:30.662Z,22.11
2017-09-27T12:35:14.812Z,22.11
2017-09-27T12:36:15.460Z,22.07
2017-09-27T12:37:59.608Z,22.06
2017-09-27T12:39:00.457Z,21.96
2017-09-27T12:40:44.606Z,21.98
2017-09-27T12:41:45.253Z,21.96
2017-09-27T12:43:29.408Z,21.87
2017-09-27T12:44:30.055Z,21.91
2017-09-27T12:46:18.471Z,21.93
2017-09-27T12:47:20.366Z,21.87
2017-09-27T12:49:04.514Z,21.79
2017-09-27T12:50:05.160Z,21.77
2017-09-27T12:53:13.222Z,21.69
2017-09-27T12:54:13.868Z,21.73
2017-09-27T12:55:58.165Z,21.89
2017-09-27T12:56:58.813Z,21.89
2017-09-27T12:58:42.962Z,21.91
2017-09-27T12:59:43.625Z,22.07
2017-09-27T13:01:27.760Z,22.47
2017-09-27T13:02:28.409Z,22.91
2017-09-27T13:04:21.026Z,24.74
2017-09-27T13:05:21.677Z,25.58
2017-09-27T13:07:05.835Z,26.48
2017-09-27T13:08:07.482Z,26.89
2017-09-27T13:09:51.638Z,27.54
2017-09-27T13:10:52.285Z,27.70
2017-09-27T13:12:36.639Z,28.33
2017-09-27T13:13:37.292Z,28.44
2017-09-27T13:15:21.446Z,28.85
2017-09-27T13:16:22.099Z,28.94
2017-09-27T13:18:06.253Z,29.26
2017-09-27T13:19:06.907Z,29.44
2017-09-27T13:20:51.263Z,29.53
2017-09-27T13:21:51.917Z,29.71
2017-09-27T13:23:36.075Z,29.68
2017-09-27T13:24:36.730Z,29.78
2017-09-27T13:26:20.889Z,30.00
2017-09-27T13:27:21.543Z,30.12
2017-09-27T13:29:05.850Z,30.21
2017-09-27T13:30:06.454Z,30.15
2017-09-27T13:31:50.611Z,30.53
2017-09-27T13:35:42.469Z,30.78
2017-09-27T13:37:00.200Z,30.83
2017-09-27T13:39:17.114Z,30.88
2017-09-27T13:41:01.272Z,31.10
2017-09-27T13:42:01.928Z,31.09
2017-09-27T13:43:46.097Z,31.15
2017-09-27T13:44:46.751Z,31.21
2017-09-27T13:46:43.383Z,31.29
